| time (UTC) | temp F | wind direction | speed knots | gust knots | rain 1hr in | rain 24hr in | rain mn in | humidity % | barometer mb |
| 20260903084116 | 69 | 39 | 0.9 | 2.6 | 0.00 | 0.00 | 0.00 | 66 | 1021.6 |
| 20260903083504 | 68 | 211 | 0.0 | 2.6 | 0.00 | 0.00 | 0.00 | 68 | 1021.8 |
| 20260903082504 | 67 | 245 | 0.9 | 2.6 | 0.00 | 0.00 | 0.00 | 68 | 1021.9 |
| 20260903081117 | 66 | 311 | 0.9 | 2.6 | 0.00 | 0.00 | 0.00 | 70 | 1022.0 |
| 20260903080504 | 66 | 87 | 0.9 | 1.7 | 0.00 | 0.00 | 0.00 | 71 | 1022.1 |
| 20260903075504 | 65 | 331 | 0.9 | 2.6 | 0.00 | 0.00 | 0.00 | 75 | 1022.1 |
| 20260903074117 | 64 | 52 | 0.9 | 1.7 | 0.00 | 0.00 | 0.00 | 77 | 1022.2 |
| 20260903073503 | 64 | 109 | 0.9 | 2.6 | 0.00 | 0.00 | 0.00 | 78 | 1022.3 |
| 20260903072503 | 62 | 84 | 0.0 | 1.7 | 0.00 | 0.00 | 0.00 | 83 | 1022.4 |
| 20260903071117 | 62 | 19 | 0.9 | 1.7 | 0.00 | 0.00 | 0.00 | 84 | 1022.5 |
| 20260903070504 | 61 | 174 | 0.9 | 1.7 | 0.00 | 0.00 | 0.00 | 84 | 1022.6 |
| 20260903065504 | 61 | 116 | 0.9 | 1.7 | 0.00 | 0.00 | 0.00 | 84 | 1022.6 |
| 20260903064116 | 61 | 89 | 0.9 | 1.7 | 0.00 | 0.00 | 0.00 | 85 | 1022.7 |
| 20260903063503 | 60 | 317 | 0.9 | 1.7 | 0.00 | 0.00 | 0.00 | 86 | 1022.7 |
| 20260903062504 | 60 | 273 | 0.0 | 1.7 | 0.00 | 0.00 | 0.00 | 86 | 1022.6 |
| 20260903061117 | 60 | 360 | 0.0 | 0.9 | 0.00 | 0.00 | 0.00 | 86 | 1022.7 |
| 20260903060504 | 60 | 151 | 0.0 | 1.7 | 0.00 | 0.00 | 0.00 | 86 | 1022.7 |
| 20260903055503 | 59 | 144 | 0.9 | 1.7 | 0.00 | 0.00 | 0.00 | 87 | 1022.7 |
| 20260903054116 | 59 | 63 | 0.9 | 1.7 | 0.00 | 0.00 | 0.00 | 87 | 1022.6 |
| 20260903053504 | 59 | 360 | 0.0 | 1.7 | 0.00 | 0.00 | 0.00 | 88 | 1022.6 |
| 20260903052504 | 59 | 360 | 0.0 | 1.7 | 0.00 | 0.00 | 0.00 | 89 | 1022.6 |
| 20260903051117 | 59 | 77 | 0.9 | 1.7 | 0.00 | 0.00 | 0.00 | 87 | 1022.6 |
| 20260903050503 | 58 | 33 | 0.9 | 2.6 | 0.00 | 0.00 | 0.00 | 88 | 1022.6 |
| 20260903045504 | 58 | 360 | 0.0 | 3.5 | 0.00 | 0.00 | 0.00 | 89 | 1022.6 |
| 20260903044116 | 58 | 134 | 0.9 | 4.3 | 0.00 | 0.00 | 0.00 | 88 | 1022.4 |
| 20260903043503 | 58 | 145 | 0.9 | 2.6 | 0.00 | 0.00 | 0.00 | 89 | 1022.5 |
| 20260903042504 | 58 | 102 | 0.9 | 1.7 | 0.00 | 0.00 | 0.00 | 88 | 1022.3 |
| 20260903041116 | 58 | 145 | 0.9 | 2.6 | 0.00 | 0.00 | 0.00 | 87 | 1022.3 |
| 20260903040504 | 58 | 142 | 0.9 | 2.6 | 0.00 | 0.00 | 0.00 | 87 | 1022.3 |
| 20260903035504 | 58 | 104 | 0.9 | 2.6 | 0.00 | 0.00 | 0.00 | 87 | 1022.4 |
| 20260903034503 | 58 | 41 | 0.0 | 1.7 | 0.00 | 0.00 | 0.00 | 87 | 1022.3 |
| 20260903033503 | 58 | 269 | 0.0 | 0.9 | 0.00 | 0.00 | 0.00 | 88 | 1022.3 |
| 20260903032504 | 58 | 104 | 1.7 | 2.6 | 0.00 | 0.00 | 0.00 | 87 | 1022.2 |
| 20260903031117 | 58 | 188 | 0.0 | 1.7 | 0.00 | 0.00 | 0.00 | 87 | 1022.2 |
| 20260903030504 | 59 | 23 | 0.9 | 1.7 | 0.00 | 0.00 | 0.00 | 85 | 1021.9 |
| 20260903025504 | 59 | 360 | 0.0 | 1.7 | 0.00 | 0.00 | 0.00 | 87 | 1021.9 |
| 20260903024504 | 59 | 146 | 0.9 | 2.6 | 0.00 | 0.00 | 0.00 | 85 | 1021.8 |
| 20260903023504 | 59 | 141 | 0.9 | 2.6 | 0.00 | 0.00 | 0.00 | 84 | 1021.8 |
| 20260903022504 | 60 | 97 | 0.0 | 3.5 | 0.00 | 0.00 | 0.00 | 83 | 1021.6 |
| 20260903021116 | 59 | 305 | 2.6 | 5.2 | 0.00 | 0.00 | 0.00 | 84 | 1021.5 |
| 20260903020504 | 59 | 113 | 1.7 | 4.3 | 0.00 | 0.00 | 0.00 | 84 | 1021.5 |
| 20260903015504 | 60 | 92 | 2.6 | 4.3 | 0.00 | 0.00 | 0.00 | 83 | 1021.5 |
| 20260903014116 | 59 | 148 | 0.9 | 3.5 | 0.00 | 0.00 | 0.00 | 85 | 1021.8 |
| 20260903013503 | 59 | 336 | 0.9 | 2.6 | 0.00 | 0.00 | 0.00 | 86 | 1021.8 |
| 20260903012503 | 59 | 92 | 0.9 | 3.5 | 0.00 | 0.00 | 0.00 | 84 | 1021.6 |
| 20260903011117 | 59 | 309 | 1.7 | 3.5 | 0.00 | 0.00 | 0.00 | 84 | 1021.6 |
| 20260903010504 | 59 | 121 | 0.0 | 1.7 | 0.00 | 0.00 | 0.00 | 85 | 1021.7 |
| 20260903005504 | 59 | 298 | 1.7 | 3.5 | 0.00 | 0.00 | 0.00 | 84 | 1021.8 |
| 20260903004117 | 59 | 274 | 0.9 | 2.6 | 0.00 | 0.00 | 0.00 | 85 | 1021.7 |
| 20260903003504 | 59 | 166 | 0.9 | 5.2 | 0.00 | 0.00 | 0.00 | 83 | 1021.7 |
| 20260903002504 | 60 | 110 | 1.7 | 5.2 | 0.00 | 0.00 | 0.00 | 82 | 1021.8 |
| 20260903001516 | 58 | 104 | 0.9 | 1.7 | 0.00 | 0.00 | 0.00 | 85 | 1022.0 |
| 20260903000503 | 58 | 9 | 0.9 | 1.7 | 0.00 | 0.00 | 0.00 | 86 | 1022.0 |
| 20260902235503 | 58 | 324 | 1.7 | 2.6 | 0.00 | 0.00 | 0.00 | 86 | 1022.3 |
| 20260902234117 | 58 | 360 | 0.0 | 1.7 | 0.00 | 0.00 | 0.00 | 86 | 1022.3 |
| 20260902233503 | 58 | 110 | 0.0 | 0.9 | 0.00 | 0.00 | 0.00 | 86 | 1022.2 |
| 20260902232503 | 58 | 121 | 0.9 | 1.7 | 0.00 | 0.00 | 0.00 | 86 | 1022.2 |
| 20260902231504 | 59 | 47 | 0.9 | 1.7 | 0.00 | 0.00 | 0.00 | 85 | 1022.2 |
| 20260902230503 | 59 | 154 | 0.9 | 3.5 | 0.00 | 0.00 | 0.00 | 84 | 1022.1 |
| 20260902225504 | 59 | 120 | 0.9 | 3.5 | 0.00 | 0.00 | 0.00 | 84 | 1021.6 |
| 20260902224117 | 60 | 145 | 1.7 | 5.2 | 0.00 | 0.00 | 0.00 | 83 | 1021.6 |
| 20260902223504 | 59 | 107 | 0.9 | 1.7 | 0.00 | 0.00 | 0.00 | 85 | 1021.5 |
| 20260902222504 | 59 | 34 | 0.9 | 2.6 | 0.00 | 0.00 | 0.00 | 84 | 1021.5 |
| 20260902221117 | 59 | 360 | 0.0 | 1.7 | 0.00 | 0.00 | 0.00 | 84 | 1021.4 |
| 20260902220503 | 60 | 116 | 0.9 | 2.6 | 0.00 | 0.00 | 0.00 | 83 | 1021.3 |
| 20260902215503 | 61 | 97 | 0.9 | 2.6 | 0.00 | 0.00 | 0.00 | 81 | 1021.3 |
| 20260902214117 | 62 | 89 | 0.9 | 2.6 | 0.00 | 0.00 | 0.00 | 80 | 1021.1 |
| 20260902213503 | 61 | 87 | 0.9 | 1.7 | 0.00 | 0.00 | 0.00 | 80 | 1021.1 |
| 20260902211117 | 62 | 129 | 0.9 | 1.7 | 0.00 | 0.00 | 0.00 | 80 | 1020.9 |
| 20260902210504 | 62 | 120 | 0.0 | 1.7 | 0.00 | 0.00 | 0.00 | 80 | 1020.8 |
| 20260902205504 | 63 | 109 | 0.9 | 2.6 | 0.00 | 0.00 | 0.00 | 76 | 1020.8 |
| 20260902204118 | 63 | 357 | 0.9 | 2.6 | 0.00 | 0.00 | 0.00 | 77 | 1020.7 |
| 20260902203503 | 63 | 151 | 0.0 | 1.7 | 0.00 | 0.00 | 0.00 | 77 | 1020.5 |
| 20260902202504 | 63 | 175 | 0.0 | 2.6 | 0.00 | 0.00 | 0.00 | 77 | 1020.6 |
| 20260902201117 | 64 | 105 | 0.9 | 1.7 | 0.00 | 0.00 | 0.00 | 77 | 1020.6 |
| 20260902200504 | 63 | 332 | 0.9 | 1.7 | 0.00 | 0.00 | 0.00 | 76 | 1020.7 |
| 20260902195504 | 64 | 92 | 0.0 | 1.7 | 0.00 | 0.00 | 0.00 | 76 | 1020.6 |
| 20260902194117 | 64 | 328 | 0.9 | 2.6 | 0.00 | 0.00 | 0.00 | 74 | 1020.6 |
| 20260902193504 | 64 | 118 | 0.9 | 1.7 | 0.00 | 0.00 | 0.00 | 76 | 1020.6 |
| 20260902192503 | 64 | 139 | 0.9 | 1.7 | 0.00 | 0.00 | 0.00 | 75 | 1020.6 |
| 20260902191117 | 65 | 132 | 1.7 | 3.5 | 0.00 | 0.00 | 0.00 | 76 | 1020.4 |
| 20260902190503 | 65 | 43 | 0.9 | 1.7 | 0.00 | 0.00 | 0.00 | 72 | 1020.2 |
| 20260902185504 | 65 | 95 | 0.9 | 2.6 | 0.00 | 0.00 | 0.00 | 73 | 1020.0 |
| 20260902184117 | 65 | 111 | 1.7 | 4.3 | 0.00 | 0.00 | 0.00 | 73 | 1019.8 |
| 20260902183504 | 66 | 112 | 1.7 | 2.6 | 0.00 | 0.00 | 0.00 | 74 | 1019.7 |
| 20260902182504 | 66 | 125 | 1.7 | 2.6 | 0.00 | 0.00 | 0.00 | 72 | 1019.6 |
| 20260902181117 | 67 | 128 | 1.7 | 2.6 | 0.00 | 0.00 | 0.00 | 74 | 1019.2 |
| 20260902180504 | 68 | 113 | 0.9 | 1.7 | 0.00 | 0.00 | 0.00 | 69 | 1019.2 |
| 20260902175504 | 69 | 137 | 0.9 | 3.5 | 0.00 | 0.00 | 0.00 | 67 | 1018.8 |
| 20260902174117 | 70 | 126 | 0.9 | 3.5 | 0.00 | 0.00 | 0.00 | 64 | 1018.6 |
| 20260902173503 | 71 | 278 | 1.7 | 5.2 | 0.00 | 0.00 | 0.00 | 58 | 1018.2 |
| 20260902172504 | 73 | 287 | 0.9 | 5.2 | 0.00 | 0.00 | 0.00 | 53 | 1017.9 |
| 20260902171117 | 74 | 277 | 0.9 | 5.2 | 0.00 | 0.00 | 0.00 | 48 | 1017.8 |
| 20260902170504 | 75 | 326 | 2.6 | 7.8 | 0.00 | 0.00 | 0.00 | 47 | 1017.7 |
| 20260902165504 | 75 | 296 | 1.7 | 6.1 | 0.00 | 0.00 | 0.00 | 45 | 1017.7 |
| 20260902164117 | 76 | 13 | 3.5 | 8.7 | 0.00 | 0.00 | 0.00 | 45 | 1017.6 |
| 20260902163504 | 76 | 340 | 4.3 | 7.8 | 0.00 | 0.00 | 0.00 | 45 | 1017.5 |
| 20260902162504 | 76 | 321 | 4.3 | 11.3 | 0.00 | 0.00 | 0.00 | 46 | 1017.3 |
| 20260902161117 | 77 | 357 | 2.6 | 10.4 | 0.00 | 0.00 | 0.00 | 45 | 1017.2 |
| 20260902160503 | 77 | 338 | 3.5 | 7.0 | 0.00 | 0.00 | 0.00 | 44 | 1017.1 |
| 20260902155504 | 77 | 336 | 4.3 | 9.6 | 0.00 | 0.00 | 0.00 | 47 | 1017.1 |
| 20260902154117 | 77 | 330 | 4.3 | 9.6 | 0.00 | 0.00 | 0.00 | 44 | 1017.1 |
| 20260902153504 | 77 | 331 | 4.3 | 10.4 | 0.00 | 0.00 | 0.00 | 44 | 1017.2 |
| 20260902152503 | 77 | 335 | 4.3 | 10.4 | 0.00 | 0.00 | 0.00 | 46 | 1017.2 |
| 20260902151117 | 77 | 356 | 3.5 | 8.7 | 0.00 | 0.00 | 0.00 | 45 | 1017.4 |
| 20260902150504 | 77 | 319 | 7.0 | 12.2 | 0.00 | 0.00 | 0.00 | 46 | 1017.4 |
| 20260902145504 | 77 | 312 | 4.3 | 11.3 | 0.00 | 0.00 | 0.00 | 45 | 1017.4 |
| 20260902144117 | 78 | 296 | 3.5 | 9.6 | 0.00 | 0.00 | 0.00 | 44 | 1017.3 |
| 20260902143504 | 77 | 327 | 7.0 | 13.0 | 0.00 | 0.00 | 0.00 | 45 | 1017.4 |
| 20260902142504 | 78 | 317 | 5.2 | 13.9 | 0.00 | 0.00 | 0.00 | 44 | 1017.4 |
| 20260902141117 | 77 | 333 | 4.3 | 11.3 | 0.00 | 0.00 | 0.00 | 44 | 1017.5 |
| 20260902140504 | 77 | 335 | 2.6 | 12.2 | 0.00 | 0.00 | 0.00 | 46 | 1017.5 |
| 20260902135504 | 77 | 309 | 3.5 | 8.7 | 0.00 | 0.00 | 0.00 | 44 | 1017.4 |
| 20260902134116 | 77 | 329 | 4.3 | 7.8 | 0.00 | 0.00 | 0.00 | 47 | 1017.4 |
| 20260902133504 | 77 | 302 | 2.6 | 7.8 | 0.00 | 0.00 | 0.00 | 45 | 1017.5 |
| 20260902132504 | 78 | 83 | 0.9 | 8.7 | 0.00 | 0.00 | 0.00 | 45 | 1017.5 |
| 20260902131117 | 77 | 11 | 3.5 | 9.6 | 0.00 | 0.00 | 0.00 | 43 | 1017.7 |
| 20260902130504 | 77 | 311 | 5.2 | 11.3 | 0.00 | 0.00 | 0.00 | 43 | 1018.0 |
| 20260902125504 | 77 | 297 | 4.3 | 9.6 | 0.00 | 0.00 | 0.00 | 43 | 1017.9 |
| 20260902124116 | 77 | 333 | 1.7 | 11.3 | 0.00 | 0.00 | 0.00 | 42 | 1017.9 |
| 20260902123504 | 77 | 344 | 2.6 | 8.7 | 0.00 | 0.00 | 0.00 | 42 | 1018.0 |
| 20260902122504 | 78 | 313 | 3.5 | 9.6 | 0.00 | 0.00 | 0.00 | 39 | 1017.9 |
| 20260902121117 | 77 | 316 | 4.3 | 10.4 | 0.00 | 0.00 | 0.00 | 40 | 1018.1 |
| 20260902120503 | 78 | 359 | 1.7 | 7.8 | 0.00 | 0.00 | 0.00 | 42 | 1018.0 |
| 20260902115503 | 78 | 340 | 3.5 | 8.7 | 0.00 | 0.00 | 0.00 | 41 | 1018.1 |
| 20260902114117 | 77 | 323 | 3.5 | 9.6 | 0.00 | 0.00 | 0.00 | 42 | 1018.2 |
| 20260902113504 | 77 | 331 | 4.3 | 11.3 | 0.00 | 0.00 | 0.00 | 44 | 1018.3 |
| 20260902112504 | 76 | 326 | 5.2 | 13.9 | 0.00 | 0.00 | 0.00 | 44 | 1018.4 |
| 20260902111117 | 76 | 324 | 5.2 | 11.3 | 0.00 | 0.00 | 0.00 | 44 | 1018.5 |
| 20260902110504 | 76 | 314 | 3.5 | 9.6 | 0.00 | 0.00 | 0.00 | 48 | 1018.6 |
| 20260902105504 | 76 | 330 | 4.3 | 8.7 | 0.00 | 0.00 | 0.00 | 46 | 1018.8 |
| 20260902104117 | 76 | 302 | 3.5 | 8.7 | 0.00 | 0.00 | 0.00 | 48 | 1018.8 |
| 20260902103504 | 75 | 305 | 3.5 | 7.0 | 0.00 | 0.00 | 0.00 | 47 | 1018.9 |
| 20260902102503 | 75 | 288 | 3.5 | 6.1 | 0.00 | 0.00 | 0.00 | 44 | 1019.2 |
| 20260902101117 | 74 | 297 | 3.5 | 7.0 | 0.00 | 0.00 | 0.00 | 46 | 1019.3 |
| 20260902100504 | 74 | 283 | 1.7 | 4.3 | 0.00 | 0.00 | 0.00 | 48 | 1019.5 |
| 20260902095504 | 74 | 312 | 1.7 | 6.1 | 0.00 | 0.00 | 0.00 | 52 | 1019.6 |
| 20260902094117 | 73 | 323 | 3.5 | 5.2 | 0.00 | 0.00 | 0.00 | 54 | 1019.8 |
| 20260902093504 | 72 | 299 | 2.6 | 5.2 | 0.00 | 0.00 | 0.00 | 52 | 1020.0 |
| 20260902092503 | 72 | 344 | 1.7 | 5.2 | 0.00 | 0.00 | 0.00 | 53 | 1020.0 |
| 20260902091116 | 72 | 278 | 0.9 | 4.3 | 0.00 | 0.00 | 0.00 | 55 | 1020.1 |
| 20260902090504 | 72 | 343 | 0.9 | 4.3 | 0.00 | 0.00 | 0.00 | 58 | 1020.1 |